KCAE

Columbia Metropolitan Airport

Columbia, South Carolina, USA
KCAE 142133Z 1422/1518 04005KT 6SM -RA BR OVC003 WS020/15035KT TEMPO 1422/1424 1SM BR FM150000 VRB04KT 2SM -RA BR OVC004 WS020/21035KT FM150600 VRB03KT 1/2SM FG OVC003 FM151600 21006KT 3SM BR OVC012
Issued Valid From Valid To
Dec-14 @ 21:33 UTC
(11 minutes ago)
Dec-14 @ 22:00 UTC
(in 16 minutes)
Dec-15 @ 18:00 UTC
(in 20 hours)
Dec-14 @ 22:00 to Dec-15 @ 00:00
KCAE 142133Z 1422/1518 04005KT 6SM -RA BR OVC003 WS020/15035KT
Wind Visibility Clouds Conditions
40° at 5 knots
 Wind shear 2,000' AGL from 150° at 35 knots
6 miles
  • Overcast at 300' AGL
  • Light Rain
  • Mist
Temporary Dec-14 @ 22:00 to Dec-15 @ 00:00
TEMPO 1422/1424 1SM BR
Visibility Conditions
1 miles
  • Mist
From Dec-15 @ 00:00 to Dec-15 @ 06:00
FM150000 VRB04KT 2SM -RA BR OVC004 WS020/21035KT
Wind Visibility Clouds Conditions
Variable at 4 knots
 Wind shear 2,000' AGL from 210° at 35 knots
2 miles
  • Overcast at 400' AGL
  • Light Rain
  • Mist
From Dec-15 @ 06:00 to Dec-15 @ 16:00
FM150600 VRB03KT 1/2SM FG OVC003
Wind Visibility Clouds Conditions
Variable at 3 knots 1/2 miles
  • Overcast at 300' AGL
  • Fog
From Dec-15 @ 16:00 to Dec-15 @ 18:00
FM151600 21006KT 3SM BR OVC012
Wind Visibility Clouds Conditions
210° at 6 knots 3 miles
  • Overcast at 1,200' AGL
  • Mist
KCAE 142133Z 1422/1518 04005KT 6SM -RA BR OVC003 WS020/15035KT TEMPO 1422/1424 1SM BR FM150000 VRB04KT 2SM -RA BR OVC004 WS020/21035KT FM150600 VRB03KT 1/2SM FG OVC003 FM151600 21006KT 3SM BR OVC012
Issued Dec-14 @ 21:33 UTC
(11 minutes ago)
Valid From Dec-14 @ 22:00 UTC
(in 16 minutes)
Valid To Dec-15 @ 18:00 UTC
(in 20 hours)
Dec-14 @ 22:00 - Dec-15 @ 00:00
Wind Visibility
40° at 5 knots 6 miles
Clouds
  • Overcast at 300' AGL
Conditions
  • Light Rain
  • Mist
Temporary Dec-14 @ 22:00 - Dec-15 @ 00:00
Conditions
  • Mist
From Dec-15 @ 00:00 - Dec-15 @ 06:00
Wind Visibility
Variable at 4 knots 2 miles
Clouds
  • Overcast at 400' AGL
Conditions
  • Light Rain
  • Mist
From Dec-15 @ 06:00 - Dec-15 @ 16:00
Wind Visibility
Variable at 3 knots 1/2 miles
Clouds
  • Overcast at 300' AGL
Conditions
  • Fog
From Dec-15 @ 16:00 - Dec-15 @ 18:00
Wind Visibility
210° at 6 knots 3 miles
Clouds
  • Overcast at 1,200' AGL
Conditions
  • Mist